sensor_id;sensor_type;location;lat;lon;timestamp;P1;durP1;ratioP1;P2;durP2;ratioP2
7173;SDS011;3628;48.654;8.932;2022-11-20T00:01:04;9.53;;;5.70;;
7173;SDS011;3628;48.654;8.932;2022-11-20T00:03:34;7.93;;;4.30;;
7173;SDS011;3628;48.654;8.932;2022-11-20T00:06:03;6.20;;;4.00;;
7173;SDS011;3628;48.654;8.932;2022-11-20T00:08:30;6.03;;;3.13;;
7173;SDS011;3628;48.654;8.932;2022-11-20T00:10:56;4.30;;;2.23;;
7173;SDS011;3628;48.654;8.932;2022-11-20T00:13:21;3.33;;;2.30;;
7173;SDS011;3628;48.654;8.932;2022-11-20T00:15:47;2.90;;;2.17;;
7173;SDS011;3628;48.654;8.932;2022-11-20T00:18:13;3.97;;;2.17;;
7173;SDS011;3628;48.654;8.932;2022-11-20T00:20:38;2.57;;;2.10;;
7173;SDS011;3628;48.654;8.932;2022-11-20T00:23:04;2.77;;;1.90;;
7173;SDS011;3628;48.654;8.932;2022-11-20T00:25:33;2.60;;;1.73;;
7173;SDS011;3628;48.654;8.932;2022-11-20T00:27:59;2.33;;;1.70;;
7173;SDS011;3628;48.654;8.932;2022-11-20T00:30:24;2.23;;;1.53;;
7173;SDS011;3628;48.654;8.932;2022-11-20T00:32:50;2.53;;;1.90;;
7173;SDS011;3628;48.654;8.932;2022-11-20T00:35:15;1.70;;;1.37;;
7173;SDS011;3628;48.654;8.932;2022-11-20T00:37:41;2.13;;;1.50;;
7173;SDS011;3628;48.654;8.932;2022-11-20T00:40:07;2.00;;;1.50;;
7173;SDS011;3628;48.654;8.932;2022-11-20T00:42:33;1.63;;;1.47;;
7173;SDS011;3628;48.654;8.932;2022-11-20T00:44:58;2.00;;;1.50;;
7173;SDS011;3628;48.654;8.932;2022-11-20T00:47:24;1.50;;;1.40;;
7173;SDS011;3628;48.654;8.932;2022-11-20T00:49:49;1.83;;;1.30;;
7173;SDS011;3628;48.654;8.932;2022-11-20T00:52:15;3.03;;;1.70;;
7173;SDS011;3628;48.654;8.932;2022-11-20T00:54:41;1.67;;;1.40;;
7173;SDS011;3628;48.654;8.932;2022-11-20T00:57:06;1.70;;;1.40;;
7173;SDS011;3628;48.654;8.932;2022-11-20T00:59:32;2.80;;;1.80;;
7173;SDS011;3628;48.654;8.932;2022-11-20T01:01:57;1.93;;;1.60;;
7173;SDS011;3628;48.654;8.932;2022-11-20T01:04:23;3.03;;;1.80;;
7173;SDS011;3628;48.654;8.932;2022-11-20T01:06:48;2.47;;;1.73;;
7173;SDS011;3628;48.654;8.932;2022-11-20T01:09:14;2.37;;;1.73;;
7173;SDS011;3628;48.654;8.932;2022-11-20T01:11:40;4.40;;;2.17;;
7173;SDS011;3628;48.654;8.932;2022-11-20T01:14:09;1.87;;;1.50;;
7173;SDS011;3628;48.654;8.932;2022-11-20T01:16:38;2.50;;;1.90;;
7173;SDS011;3628;48.654;8.932;2022-11-20T01:19:07;1.77;;;1.60;;
7173;SDS011;3628;48.654;8.932;2022-11-20T01:21:37;2.33;;;1.60;;
7173;SDS011;3628;48.654;8.932;2022-11-20T01:24:05;2.27;;;1.60;;
7173;SDS011;3628;48.654;8.932;2022-11-20T01:26:34;1.40;;;1.30;;
7173;SDS011;3628;48.654;8.932;2022-11-20T01:29:01;3.17;;;1.60;;
7173;SDS011;3628;48.654;8.932;2022-11-20T01:31:32;1.90;;;1.60;;
7173;SDS011;3628;48.654;8.932;2022-11-20T01:34:06;1.90;;;1.50;;
7173;SDS011;3628;48.654;8.932;2022-11-20T01:36:34;1.80;;;1.40;;
7173;SDS011;3628;48.654;8.932;2022-11-20T01:39:02;2.80;;;1.50;;
7173;SDS011;3628;48.654;8.932;2022-11-20T01:41:31;3.80;;;1.70;;
7173;SDS011;3628;48.654;8.932;2022-11-20T01:44:17;1.67;;;1.57;;
7173;SDS011;3628;48.654;8.932;2022-11-20T01:46:50;2.10;;;1.90;;
7173;SDS011;3628;48.654;8.932;2022-11-20T01:49:36;3.63;;;2.47;;
7173;SDS011;3628;48.654;8.932;2022-11-20T01:52:24;1.90;;;1.77;;
7173;SDS011;3628;48.654;8.932;2022-11-20T01:57:31;2.10;;;1.50;;
7173;SDS011;3628;48.654;8.932;2022-11-20T02:00:07;2.83;;;1.53;;
7173;SDS011;3628;48.654;8.932;2022-11-20T02:02:37;1.80;;;1.70;;
7173;SDS011;3628;48.654;8.932;2022-11-20T02:05:11;11.47;;;2.00;;
7173;SDS011;3628;48.654;8.932;2022-11-20T02:07:47;2.00;;;1.50;;
7173;SDS011;3628;48.654;8.932;2022-11-20T02:10:14;2.03;;;1.73;;
7173;SDS011;3628;48.654;8.932;2022-11-20T02:12:39;2.50;;;1.50;;
7173;SDS011;3628;48.654;8.932;2022-11-20T02:15:23;2.33;;;1.47;;
7173;SDS011;3628;48.654;8.932;2022-11-20T02:17:49;2.00;;;1.20;;
7173;SDS011;3628;48.654;8.932;2022-11-20T02:20:15;1.83;;;1.33;;
7173;SDS011;3628;48.654;8.932;2022-11-20T02:22:51;3.70;;;1.33;;
7173;SDS011;3628;48.654;8.932;2022-11-20T02:25:36;1.47;;;1.20;;
7173;SDS011;3628;48.654;8.932;2022-11-20T02:28:03;3.17;;;1.60;;
7173;SDS011;3628;48.654;8.932;2022-11-20T02:30:29;2.17;;;1.60;;
7173;SDS011;3628;48.654;8.932;2022-11-20T02:32:55;3.27;;;2.57;;
7173;SDS011;3628;48.654;8.932;2022-11-20T02:37:48;3.17;;;2.13;;
7173;SDS011;3628;48.654;8.932;2022-11-20T02:40:16;3.63;;;2.50;;
7173;SDS011;3628;48.654;8.932;2022-11-20T02:42:42;3.30;;;2.80;;
7173;SDS011;3628;48.654;8.932;2022-11-20T02:45:07;2.40;;;1.60;;
7173;SDS011;3628;48.654;8.932;2022-11-20T02:47:33;1.83;;;1.60;;
7173;SDS011;3628;48.654;8.932;2022-11-20T02:49:59;1.57;;;1.43;;
7173;SDS011;3628;48.654;8.932;2022-11-20T02:52:25;3.63;;;1.77;;
7173;SDS011;3628;48.654;8.932;2022-11-20T02:54:51;1.87;;;1.67;;
7173;SDS011;3628;48.654;8.932;2022-11-20T02:57:17;1.90;;;1.70;;
7173;SDS011;3628;48.654;8.932;2022-11-20T02:59:42;2.87;;;2.07;;
7173;SDS011;3628;48.654;8.932;2022-11-20T03:02:08;2.23;;;1.80;;
7173;SDS011;3628;48.654;8.932;2022-11-20T03:04:33;3.30;;;1.93;;
7173;SDS011;3628;48.654;8.932;2022-11-20T03:06:59;1.70;;;1.60;;
7173;SDS011;3628;48.654;8.932;2022-11-20T03:09:24;2.10;;;1.80;;
7173;SDS011;3628;48.654;8.932;2022-11-20T03:11:50;2.97;;;2.13;;
7173;SDS011;3628;48.654;8.932;2022-11-20T03:14:16;2.10;;;1.67;;
7173;SDS011;3628;48.654;8.932;2022-11-20T03:16:41;1.80;;;1.70;;
7173;SDS011;3628;48.654;8.932;2022-11-20T03:19:07;1.67;;;1.40;;
7173;SDS011;3628;48.654;8.932;2022-11-20T03:21:33;1.60;;;1.47;;
7173;SDS011;3628;48.654;8.932;2022-11-20T03:23:59;2.07;;;1.87;;
7173;SDS011;3628;48.654;8.932;2022-11-20T03:26:25;1.97;;;1.87;;
7173;SDS011;3628;48.654;8.932;2022-11-20T03:28:52;2.37;;;2.00;;
7173;SDS011;3628;48.654;8.932;2022-11-20T03:31:30;2.17;;;1.80;;
7173;SDS011;3628;48.654;8.932;2022-11-20T03:33:58;2.90;;;1.87;;
7173;SDS011;3628;48.654;8.932;2022-11-20T03:36:24;1.67;;;1.57;;
7173;SDS011;3628;48.654;8.932;2022-11-20T03:38:52;2.07;;;1.70;;
7173;SDS011;3628;48.654;8.932;2022-11-20T03:41:19;2.67;;;2.00;;
7173;SDS011;3628;48.654;8.932;2022-11-20T03:43:51;2.83;;;2.20;;
7173;SDS011;3628;48.654;8.932;2022-11-20T03:46:18;3.47;;;2.70;;
7173;SDS011;3628;48.654;8.932;2022-11-20T03:48:45;2.60;;;2.40;;
7173;SDS011;3628;48.654;8.932;2022-11-20T03:53:39;2.77;;;2.10;;
7173;SDS011;3628;48.654;8.932;2022-11-20T03:56:06;2.57;;;1.90;;
7173;SDS011;3628;48.654;8.932;2022-11-20T03:58:33;1.80;;;1.47;;
7173;SDS011;3628;48.654;8.932;2022-11-20T04:01:05;1.60;;;1.50;;
7173;SDS011;3628;48.654;8.932;2022-11-20T04:03:35;1.77;;;1.67;;
7173;SDS011;3628;48.654;8.932;2022-11-20T04:06:12;2.30;;;1.90;;
7173;SDS011;3628;48.654;8.932;2022-11-20T04:08:43;3.40;;;1.70;;
7173;SDS011;3628;48.654;8.932;2022-11-20T04:13:38;3.20;;;1.50;;
7173;SDS011;3628;48.654;8.932;2022-11-20T04:16:08;1.40;;;1.30;;
7173;SDS011;3628;48.654;8.932;2022-11-20T04:18:34;3.23;;;1.67;;
7173;SDS011;3628;48.654;8.932;2022-11-20T04:21:01;2.53;;;1.80;;
7173;SDS011;3628;48.654;8.932;2022-11-20T04:23:27;1.87;;;1.50;;
7173;SDS011;3628;48.654;8.932;2022-11-20T04:25:53;1.70;;;1.60;;
7173;SDS011;3628;48.654;8.932;2022-11-20T04:28:19;1.67;;;1.43;;
7173;SDS011;3628;48.654;8.932;2022-11-20T04:30:44;2.67;;;1.50;;
7173;SDS011;3628;48.654;8.932;2022-11-20T04:33:10;2.13;;;1.60;;
7173;SDS011;3628;48.654;8.932;2022-11-20T04:35:37;2.63;;;1.23;;
7173;SDS011;3628;48.654;8.932;2022-11-20T04:38:03;1.50;;;1.40;;
7173;SDS011;3628;48.654;8.932;2022-11-20T04:40:29;1.50;;;1.40;;
7173;SDS011;3628;48.654;8.932;2022-11-20T04:42:55;1.60;;;1.33;;
7173;SDS011;3628;48.654;8.932;2022-11-20T04:45:22;2.27;;;1.80;;
7173;SDS011;3628;48.654;8.932;2022-11-20T04:47:48;2.40;;;1.60;;
7173;SDS011;3628;48.654;8.932;2022-11-20T04:50:14;2.17;;;1.97;;
7173;SDS011;3628;48.654;8.932;2022-11-20T04:52:40;2.17;;;1.77;;
7173;SDS011;3628;48.654;8.932;2022-11-20T04:55:05;1.43;;;1.33;;
7173;SDS011;3628;48.654;8.932;2022-11-20T04:57:31;1.77;;;1.40;;
7173;SDS011;3628;48.654;8.932;2022-11-20T04:59:57;1.73;;;1.43;;
7173;SDS011;3628;48.654;8.932;2022-11-20T05:02:22;1.50;;;1.40;;
7173;SDS011;3628;48.654;8.932;2022-11-20T05:04:48;2.47;;;1.30;;
7173;SDS011;3628;48.654;8.932;2022-11-20T05:07:14;2.23;;;1.53;;
7173;SDS011;3628;48.654;8.932;2022-11-20T05:09:39;1.50;;;1.20;;
7173;SDS011;3628;48.654;8.932;2022-11-20T05:12:07;1.80;;;1.40;;
7173;SDS011;3628;48.654;8.932;2022-11-20T05:14:33;1.40;;;1.30;;
7173;SDS011;3628;48.654;8.932;2022-11-20T05:16:58;2.00;;;1.50;;
7173;SDS011;3628;48.654;8.932;2022-11-20T05:19:24;1.50;;;1.30;;
7173;SDS011;3628;48.654;8.932;2022-11-20T05:21:50;2.93;;;1.40;;
7173;SDS011;3628;48.654;8.932;2022-11-20T05:24:15;2.03;;;1.40;;
7173;SDS011;3628;48.654;8.932;2022-11-20T05:26:41;1.83;;;1.27;;
7173;SDS011;3628;48.654;8.932;2022-11-20T05:29:08;5.67;;;1.90;;
7173;SDS011;3628;48.654;8.932;2022-11-20T05:31:35;1.60;;;1.40;;
7173;SDS011;3628;48.654;8.932;2022-11-20T05:34:02;2.57;;;1.50;;
7173;SDS011;3628;48.654;8.932;2022-11-20T05:36:27;1.47;;;1.23;;
7173;SDS011;3628;48.654;8.932;2022-11-20T05:38:54;1.47;;;1.30;;
7173;SDS011;3628;48.654;8.932;2022-11-20T05:41:20;1.63;;;1.10;;
7173;SDS011;3628;48.654;8.932;2022-11-20T05:43:46;2.73;;;1.50;;
7173;SDS011;3628;48.654;8.932;2022-11-20T05:46:14;1.47;;;1.20;;
7173;SDS011;3628;48.654;8.932;2022-11-20T05:48:41;1.23;;;1.13;;
7173;SDS011;3628;48.654;8.932;2022-11-20T05:51:08;2.20;;;1.33;;
7173;SDS011;3628;48.654;8.932;2022-11-20T05:53:35;1.90;;;1.40;;
7173;SDS011;3628;48.654;8.932;2022-11-20T05:56:02;2.37;;;1.30;;
7173;SDS011;3628;48.654;8.932;2022-11-20T05:58:29;2.30;;;1.30;;
7173;SDS011;3628;48.654;8.932;2022-11-20T06:01:02;1.27;;;1.20;;
7173;SDS011;3628;48.654;8.932;2022-11-20T06:03:35;1.80;;;1.27;;
7173;SDS011;3628;48.654;8.932;2022-11-20T06:06:02;1.30;;;1.20;;
7173;SDS011;3628;48.654;8.932;2022-11-20T06:08:28;1.50;;;1.20;;
7173;SDS011;3628;48.654;8.932;2022-11-20T06:10:54;1.80;;;1.37;;
7173;SDS011;3628;48.654;8.932;2022-11-20T06:13:20;1.53;;;1.20;;
7173;SDS011;3628;48.654;8.932;2022-11-20T06:15:49;1.47;;;1.37;;
7173;SDS011;3628;48.654;8.932;2022-11-20T06:18:15;1.37;;;1.27;;
7173;SDS011;3628;48.654;8.932;2022-11-20T06:20:41;1.73;;;1.30;;
7173;SDS011;3628;48.654;8.932;2022-11-20T06:23:07;1.70;;;1.20;;
7173;SDS011;3628;48.654;8.932;2022-11-20T06:25:32;1.83;;;1.20;;
7173;SDS011;3628;48.654;8.932;2022-11-20T06:27:58;2.60;;;1.17;;
7173;SDS011;3628;48.654;8.932;2022-11-20T06:30:23;2.30;;;1.23;;
7173;SDS011;3628;48.654;8.932;2022-11-20T06:32:49;1.13;;;0.90;;
7173;SDS011;3628;48.654;8.932;2022-11-20T06:35:14;2.23;;;1.20;;
7173;SDS011;3628;48.654;8.932;2022-11-20T06:37:40;1.63;;;1.17;;
7173;SDS011;3628;48.654;8.932;2022-11-20T06:40:05;1.27;;;1.10;;
7173;SDS011;3628;48.654;8.932;2022-11-20T06:42:32;3.43;;;1.03;;
7173;SDS011;3628;48.654;8.932;2022-11-20T06:44:57;1.30;;;1.17;;
7173;SDS011;3628;48.654;8.932;2022-11-20T06:47:23;1.53;;;1.20;;
7173;SDS011;3628;48.654;8.932;2022-11-20T06:49:48;1.57;;;1.43;;
7173;SDS011;3628;48.654;8.932;2022-11-20T06:52:14;1.60;;;1.20;;
7173;SDS011;3628;48.654;8.932;2022-11-20T06:54:39;1.13;;;1.13;;
7173;SDS011;3628;48.654;8.932;2022-11-20T06:57:05;1.60;;;1.40;;
7173;SDS011;3628;48.654;8.932;2022-11-20T06:59:30;1.33;;;1.23;;
7173;SDS011;3628;48.654;8.932;2022-11-20T07:01:56;1.23;;;1.13;;
7173;SDS011;3628;48.654;8.932;2022-11-20T07:04:21;1.20;;;1.07;;
7173;SDS011;3628;48.654;8.932;2022-11-20T07:06:47;0.90;;;0.90;;
7173;SDS011;3628;48.654;8.932;2022-11-20T07:09:13;2.43;;;1.13;;
7173;SDS011;3628;48.654;8.932;2022-11-20T07:11:39;1.40;;;1.00;;
7173;SDS011;3628;48.654;8.932;2022-11-20T07:14:04;1.20;;;1.10;;
7173;SDS011;3628;48.654;8.932;2022-11-20T07:16:30;2.87;;;1.10;;
7173;SDS011;3628;48.654;8.932;2022-11-20T07:18:55;1.10;;;0.90;;
7173;SDS011;3628;48.654;8.932;2022-11-20T07:21:21;1.57;;;1.00;;
7173;SDS011;3628;48.654;8.932;2022-11-20T07:23:47;1.87;;;0.97;;
7173;SDS011;3628;48.654;8.932;2022-11-20T07:26:12;1.50;;;0.90;;
7173;SDS011;3628;48.654;8.932;2022-11-20T07:28:38;0.90;;;0.90;;
7173;SDS011;3628;48.654;8.932;2022-11-20T07:31:03;1.33;;;1.03;;
7173;SDS011;3628;48.654;8.932;2022-11-20T07:33:31;1.90;;;0.90;;
7173;SDS011;3628;48.654;8.932;2022-11-20T07:35:58;1.70;;;0.80;;
7173;SDS011;3628;48.654;8.932;2022-11-20T07:38:24;0.77;;;0.67;;
7173;SDS011;3628;48.654;8.932;2022-11-20T07:40:53;0.93;;;0.93;;
7173;SDS011;3628;48.654;8.932;2022-11-20T07:43:19;1.13;;;0.83;;
7173;SDS011;3628;48.654;8.932;2022-11-20T07:45:45;1.43;;;1.00;;
7173;SDS011;3628;48.654;8.932;2022-11-20T07:48:10;0.90;;;0.90;;
7173;SDS011;3628;48.654;8.932;2022-11-20T07:50:36;1.33;;;1.00;;
7173;SDS011;3628;48.654;8.932;2022-11-20T07:53:05;0.80;;;0.80;;
7173;SDS011;3628;48.654;8.932;2022-11-20T07:55:31;0.80;;;0.80;;
7173;SDS011;3628;48.654;8.932;2022-11-20T07:57:57;1.43;;;0.80;;
7173;SDS011;3628;48.654;8.932;2022-11-20T08:00:23;0.90;;;0.90;;
7173;SDS011;3628;48.654;8.932;2022-11-20T08:02:49;2.93;;;2.40;;
7173;SDS011;3628;48.654;8.932;2022-11-20T08:05:15;6.20;;;3.60;;
7173;SDS011;3628;48.654;8.932;2022-11-20T08:07:42;4.07;;;2.60;;
7173;SDS011;3628;48.654;8.932;2022-11-20T08:10:09;2.80;;;1.30;;
7173;SDS011;3628;48.654;8.932;2022-11-20T08:12:36;1.57;;;1.17;;
7173;SDS011;3628;48.654;8.932;2022-11-20T08:15:26;1.53;;;1.17;;
7173;SDS011;3628;48.654;8.932;2022-11-20T08:17:58;1.37;;;1.10;;
7173;SDS011;3628;48.654;8.932;2022-11-20T08:20:28;3.00;;;1.27;;
7173;SDS011;3628;48.654;8.932;2022-11-20T08:22:57;1.33;;;1.23;;
7173;SDS011;3628;48.654;8.932;2022-11-20T08:25:27;2.67;;;1.40;;
7173;SDS011;3628;48.654;8.932;2022-11-20T08:27:53;1.40;;;1.30;;
7173;SDS011;3628;48.654;8.932;2022-11-20T08:30:19;13.43;;;7.33;;
7173;SDS011;3628;48.654;8.932;2022-11-20T08:32:44;11.93;;;6.87;;
7173;SDS011;3628;48.654;8.932;2022-11-20T08:35:10;6.37;;;4.37;;
7173;SDS011;3628;48.654;8.932;2022-11-20T08:37:35;30.73;;;14.17;;
7173;SDS011;3628;48.654;8.932;2022-11-20T08:40:03;44.30;;;21.03;;
7173;SDS011;3628;48.654;8.932;2022-11-20T08:42:29;6.30;;;2.83;;
7173;SDS011;3628;48.654;8.932;2022-11-20T08:44:55;7.93;;;5.30;;
7173;SDS011;3628;48.654;8.932;2022-11-20T08:47:20;1.50;;;1.40;;
7173;SDS011;3628;48.654;8.932;2022-11-20T08:49:46;1.10;;;1.00;;
7173;SDS011;3628;48.654;8.932;2022-11-20T08:52:11;1.97;;;1.50;;
7173;SDS011;3628;48.654;8.932;2022-11-20T08:54:37;1.63;;;1.10;;
7173;SDS011;3628;48.654;8.932;2022-11-20T08:57:02;1.20;;;1.10;;
7173;SDS011;3628;48.654;8.932;2022-11-20T08:59:28;0.90;;;0.90;;
7173;SDS011;3628;48.654;8.932;2022-11-20T09:01:54;1.20;;;1.07;;
7173;SDS011;3628;48.654;8.932;2022-11-20T09:04:20;3.90;;;1.00;;
7173;SDS011;3628;48.654;8.932;2022-11-20T09:06:46;1.27;;;1.00;;
7173;SDS011;3628;48.654;8.932;2022-11-20T09:09:15;2.33;;;1.17;;
7173;SDS011;3628;48.654;8.932;2022-11-20T09:11:41;1.60;;;1.20;;
7173;SDS011;3628;48.654;8.932;2022-11-20T09:14:07;3.00;;;1.50;;
7173;SDS011;3628;48.654;8.932;2022-11-20T09:16:32;1.40;;;0.97;;
7173;SDS011;3628;48.654;8.932;2022-11-20T09:18:58;1.87;;;0.90;;
7173;SDS011;3628;48.654;8.932;2022-11-20T09:21:24;0.97;;;0.80;;
7173;SDS011;3628;48.654;8.932;2022-11-20T09:23:49;0.70;;;0.70;;
7173;SDS011;3628;48.654;8.932;2022-11-20T09:26:15;0.50;;;0.50;;
7173;SDS011;3628;48.654;8.932;2022-11-20T09:28:41;0.77;;;0.60;;
7173;SDS011;3628;48.654;8.932;2022-11-20T09:31:07;0.57;;;0.57;;
7173;SDS011;3628;48.654;8.932;2022-11-20T09:33:33;3.07;;;0.77;;
7173;SDS011;3628;48.654;8.932;2022-11-20T09:36:00;0.90;;;0.60;;
7173;SDS011;3628;48.654;8.932;2022-11-20T09:38:25;0.77;;;0.50;;
7173;SDS011;3628;48.654;8.932;2022-11-20T09:40:56;0.43;;;0.43;;
7173;SDS011;3628;48.654;8.932;2022-11-20T09:54:30;0.90;;;0.67;;
7173;SDS011;3628;48.654;8.932;2022-11-20T09:57:08;0.97;;;0.87;;
7173;SDS011;3628;48.654;8.932;2022-11-20T10:13:05;0.40;;;0.40;;
7173;SDS011;3628;48.654;8.932;2022-11-20T10:16:00;0.80;;;0.80;;
7173;SDS011;3628;48.654;8.932;2022-11-20T10:21:50;1.60;;;1.30;;
7173;SDS011;3628;48.654;8.932;2022-11-20T10:24:44;2.40;;;0.77;;
7173;SDS011;3628;48.654;8.932;2022-11-20T10:30:24;1.27;;;0.87;;
7173;SDS011;3628;48.654;8.932;2022-11-20T10:32:54;1.43;;;0.70;;
7173;SDS011;3628;48.654;8.932;2022-11-20T10:35:37;1.00;;;0.80;;
7173;SDS011;3628;48.654;8.932;2022-11-20T10:38:11;4.37;;;1.63;;
7173;SDS011;3628;48.654;8.932;2022-11-20T10:40:44;1.00;;;0.77;;
7173;SDS011;3628;48.654;8.932;2022-11-20T10:43:16;1.10;;;0.90;;
7173;SDS011;3628;48.654;8.932;2022-11-20T10:48:33;0.80;;;0.60;;
7173;SDS011;3628;48.654;8.932;2022-11-20T10:56:47;0.87;;;0.80;;
7173;SDS011;3628;48.654;8.932;2022-11-20T11:02:24;0.73;;;0.53;;
7173;SDS011;3628;48.654;8.932;2022-11-20T11:04:56;3.43;;;2.00;;
7173;SDS011;3628;48.654;8.932;2022-11-20T11:07:35;1.60;;;0.67;;
7173;SDS011;3628;48.654;8.932;2022-11-20T11:10:12;0.53;;;0.50;;
7173;SDS011;3628;48.654;8.932;2022-11-20T11:12:57;0.73;;;0.50;;
7173;SDS011;3628;48.654;8.932;2022-11-20T11:18:01;1.00;;;0.80;;
7173;SDS011;3628;48.654;8.932;2022-11-20T11:20:27;1.07;;;0.80;;
7173;SDS011;3628;48.654;8.932;2022-11-20T11:22:56;0.90;;;0.53;;
7173;SDS011;3628;48.654;8.932;2022-11-20T11:25:30;0.97;;;0.70;;
7173;SDS011;3628;48.654;8.932;2022-11-20T11:28:42;0.80;;;0.53;;
7173;SDS011;3628;48.654;8.932;2022-11-20T11:30:51;1.30;;;0.47;;
7173;SDS011;3628;48.654;8.932;2022-11-20T11:35:46;1.23;;;0.70;;
7173;SDS011;3628;48.654;8.932;2022-11-20T11:41:01;0.50;;;0.50;;
7173;SDS011;3628;48.654;8.932;2022-11-20T11:43:29;0.47;;;0.47;;
7173;SDS011;3628;48.654;8.932;2022-11-20T11:49:21;1.77;;;0.70;;
7173;SDS011;3628;48.654;8.932;2022-11-20T11:51:45;1.40;;;0.57;;
7173;SDS011;3628;48.654;8.932;2022-11-20T11:54:23;1.40;;;0.60;;
7173;SDS011;3628;48.654;8.932;2022-11-20T11:57:00;0.93;;;0.40;;
7173;SDS011;3628;48.654;8.932;2022-11-20T11:59:54;1.23;;;0.63;;
7173;SDS011;3628;48.654;8.932;2022-11-20T12:08:23;1.27;;;0.53;;
7173;SDS011;3628;48.654;8.932;2022-11-20T12:15:58;1.13;;;0.60;;
7173;SDS011;3628;48.654;8.932;2022-11-20T12:18:25;1.30;;;0.60;;
7173;SDS011;3628;48.654;8.932;2022-11-20T12:27:04;1.20;;;0.57;;
7173;SDS011;3628;48.654;8.932;2022-11-20T12:41:00;1.47;;;0.50;;
7173;SDS011;3628;48.654;8.932;2022-11-20T12:44:10;0.93;;;0.50;;
7173;SDS011;3628;48.654;8.932;2022-11-20T12:47:20;4.13;;;0.83;;
7173;SDS011;3628;48.654;8.932;2022-11-20T12:52:59;0.47;;;0.47;;
7173;SDS011;3628;48.654;8.932;2022-11-20T12:55:33;3.10;;;0.50;;
7173;SDS011;3628;48.654;8.932;2022-11-20T12:58:12;1.27;;;0.70;;
7173;SDS011;3628;48.654;8.932;2022-11-20T13:00:47;0.87;;;0.50;;
7173;SDS011;3628;48.654;8.932;2022-11-20T13:04:06;0.80;;;0.43;;
7173;SDS011;3628;48.654;8.932;2022-11-20T13:06:51;0.90;;;0.30;;
7173;SDS011;3628;48.654;8.932;2022-11-20T13:09:17;0.73;;;0.40;;
7173;SDS011;3628;48.654;8.932;2022-11-20T13:11:51;0.50;;;0.50;;
7173;SDS011;3628;48.654;8.932;2022-11-20T13:14:46;0.67;;;0.27;;
7173;SDS011;3628;48.654;8.932;2022-11-20T13:19:55;1.83;;;0.30;;
7173;SDS011;3628;48.654;8.932;2022-11-20T13:22:42;0.80;;;0.50;;
7173;SDS011;3628;48.654;8.932;2022-11-20T13:25:25;0.87;;;0.60;;
7173;SDS011;3628;48.654;8.932;2022-11-20T13:27:53;0.97;;;0.50;;
7173;SDS011;3628;48.654;8.932;2022-11-20T13:30:21;1.97;;;0.90;;
7173;SDS011;3628;48.654;8.932;2022-11-20T13:32:51;4.43;;;1.60;;
7173;SDS011;3628;48.654;8.932;2022-11-20T13:35:26;4.97;;;1.87;;
7173;SDS011;3628;48.654;8.932;2022-11-20T13:40:35;1.37;;;0.70;;
7173;SDS011;3628;48.654;8.932;2022-11-20T13:45:58;1.30;;;0.50;;
7173;SDS011;3628;48.654;8.932;2022-11-20T13:48:38;1.27;;;0.67;;
7173;SDS011;3628;48.654;8.932;2022-11-20T14:01:56;1.40;;;0.40;;
7173;SDS011;3628;48.654;8.932;2022-11-20T14:04:29;1.00;;;0.53;;
7173;SDS011;3628;48.654;8.932;2022-11-20T14:07:00;4.80;;;0.97;;
7173;SDS011;3628;48.654;8.932;2022-11-20T14:09:27;0.63;;;0.63;;
7173;SDS011;3628;48.654;8.932;2022-11-20T14:11:54;1.90;;;1.10;;
7173;SDS011;3628;48.654;8.932;2022-11-20T14:14:21;4.77;;;2.27;;
7173;SDS011;3628;48.654;8.932;2022-11-20T14:16:48;4.30;;;2.10;;
7173;SDS011;3628;48.654;8.932;2022-11-20T14:21:51;1.80;;;1.00;;
7173;SDS011;3628;48.654;8.932;2022-11-20T14:24:19;1.00;;;0.70;;
7173;SDS011;3628;48.654;8.932;2022-11-20T14:26:46;2.80;;;1.50;;
7173;SDS011;3628;48.654;8.932;2022-11-20T14:29:16;1.77;;;1.20;;
7173;SDS011;3628;48.654;8.932;2022-11-20T14:31:42;0.83;;;0.70;;
7173;SDS011;3628;48.654;8.932;2022-11-20T14:34:12;1.63;;;0.70;;
7173;SDS011;3628;48.654;8.932;2022-11-20T14:36:44;0.80;;;0.60;;
7173;SDS011;3628;48.654;8.932;2022-11-20T14:39:25;0.90;;;0.70;;
7173;SDS011;3628;48.654;8.932;2022-11-20T14:41:59;2.77;;;1.40;;
7173;SDS011;3628;48.654;8.932;2022-11-20T14:44:28;4.30;;;1.57;;
7173;SDS011;3628;48.654;8.932;2022-11-20T14:46:56;3.13;;;2.30;;
7173;SDS011;3628;48.654;8.932;2022-11-20T14:49:23;3.00;;;1.60;;
7173;SDS011;3628;48.654;8.932;2022-11-20T14:51:58;1.63;;;0.80;;
7173;SDS011;3628;48.654;8.932;2022-11-20T14:54:42;0.53;;;0.50;;
7173;SDS011;3628;48.654;8.932;2022-11-20T14:57:24;1.40;;;1.30;;
7173;SDS011;3628;48.654;8.932;2022-11-20T15:02:31;1.50;;;0.90;;
7173;SDS011;3628;48.654;8.932;2022-11-20T15:04:57;1.33;;;0.90;;
7173;SDS011;3628;48.654;8.932;2022-11-20T15:07:27;1.30;;;0.90;;
7173;SDS011;3628;48.654;8.932;2022-11-20T15:10:05;1.13;;;0.60;;
7173;SDS011;3628;48.654;8.932;2022-11-20T15:12:36;1.37;;;0.93;;
7173;SDS011;3628;48.654;8.932;2022-11-20T15:15:05;1.20;;;1.00;;
7173;SDS011;3628;48.654;8.932;2022-11-20T15:17:34;1.30;;;1.00;;
7173;SDS011;3628;48.654;8.932;2022-11-20T15:20:02;2.40;;;1.07;;
7173;SDS011;3628;48.654;8.932;2022-11-20T15:22:35;1.60;;;0.90;;
7173;SDS011;3628;48.654;8.932;2022-11-20T15:25:01;2.17;;;0.60;;
7173;SDS011;3628;48.654;8.932;2022-11-20T15:27:26;1.27;;;1.00;;
7173;SDS011;3628;48.654;8.932;2022-11-20T15:29:53;1.10;;;0.67;;
7173;SDS011;3628;48.654;8.932;2022-11-20T15:32:18;1.83;;;0.60;;
7173;SDS011;3628;48.654;8.932;2022-11-20T15:34:44;0.60;;;0.60;;
7173;SDS011;3628;48.654;8.932;2022-11-20T15:37:09;0.73;;;0.73;;
7173;SDS011;3628;48.654;8.932;2022-11-20T15:39:35;2.10;;;1.43;;
7173;SDS011;3628;48.654;8.932;2022-11-20T15:42:00;1.40;;;1.30;;
7173;SDS011;3628;48.654;8.932;2022-11-20T15:44:26;1.00;;;1.00;;
7173;SDS011;3628;48.654;8.932;2022-11-20T15:46:51;1.17;;;1.00;;
7173;SDS011;3628;48.654;8.932;2022-11-20T15:49:17;2.17;;;0.90;;
7173;SDS011;3628;48.654;8.932;2022-11-20T15:51:44;0.80;;;0.80;;
7173;SDS011;3628;48.654;8.932;2022-11-20T15:54:16;2.30;;;0.90;;
7173;SDS011;3628;48.654;8.932;2022-11-20T15:56:48;1.33;;;0.70;;
7173;SDS011;3628;48.654;8.932;2022-11-20T15:59:17;0.60;;;0.60;;
7173;SDS011;3628;48.654;8.932;2022-11-20T16:01:42;1.70;;;1.23;;
7173;SDS011;3628;48.654;8.932;2022-11-20T16:04:09;3.93;;;1.17;;
7173;SDS011;3628;48.654;8.932;2022-11-20T16:06:39;1.47;;;1.00;;
7173;SDS011;3628;48.654;8.932;2022-11-20T16:09:05;1.63;;;1.07;;
7173;SDS011;3628;48.654;8.932;2022-11-20T16:11:31;1.13;;;0.93;;
7173;SDS011;3628;48.654;8.932;2022-11-20T16:13:56;2.37;;;1.03;;
7173;SDS011;3628;48.654;8.932;2022-11-20T16:16:41;1.27;;;1.17;;
7173;SDS011;3628;48.654;8.932;2022-11-20T16:19:11;2.20;;;1.00;;
7173;SDS011;3628;48.654;8.932;2022-11-20T16:21:37;1.10;;;1.00;;
7173;SDS011;3628;48.654;8.932;2022-11-20T16:24:05;1.83;;;1.40;;
7173;SDS011;3628;48.654;8.932;2022-11-20T16:26:31;6.80;;;1.77;;
7173;SDS011;3628;48.654;8.932;2022-11-20T16:28:58;2.50;;;1.70;;
7173;SDS011;3628;48.654;8.932;2022-11-20T16:31:24;1.77;;;1.57;;
7173;SDS011;3628;48.654;8.932;2022-11-20T16:33:54;2.03;;;1.33;;
7173;SDS011;3628;48.654;8.932;2022-11-20T16:36:21;1.57;;;1.07;;
7173;SDS011;3628;48.654;8.932;2022-11-20T16:38:52;1.27;;;1.20;;
7173;SDS011;3628;48.654;8.932;2022-11-20T16:41:19;1.67;;;1.10;;
7173;SDS011;3628;48.654;8.932;2022-11-20T16:43:45;1.73;;;1.10;;
7173;SDS011;3628;48.654;8.932;2022-11-20T16:46:15;3.30;;;2.20;;
7173;SDS011;3628;48.654;8.932;2022-11-20T16:48:43;3.83;;;2.90;;
7173;SDS011;3628;48.654;8.932;2022-11-20T16:51:09;6.80;;;3.87;;
7173;SDS011;3628;48.654;8.932;2022-11-20T16:53:36;9.50;;;5.00;;
7173;SDS011;3628;48.654;8.932;2022-11-20T16:56:15;3.07;;;2.30;;
7173;SDS011;3628;48.654;8.932;2022-11-20T16:58:45;4.40;;;3.40;;
7173;SDS011;3628;48.654;8.932;2022-11-20T17:01:13;4.90;;;2.80;;
7173;SDS011;3628;48.654;8.932;2022-11-20T17:03:41;3.47;;;2.20;;
7173;SDS011;3628;48.654;8.932;2022-11-20T17:06:11;2.40;;;1.80;;
7173;SDS011;3628;48.654;8.932;2022-11-20T17:08:43;2.97;;;2.03;;
7173;SDS011;3628;48.654;8.932;2022-11-20T17:11:10;1.87;;;1.77;;
7173;SDS011;3628;48.654;8.932;2022-11-20T17:13:37;5.17;;;3.90;;
7173;SDS011;3628;48.654;8.932;2022-11-20T17:16:04;13.87;;;7.83;;
7173;SDS011;3628;48.654;8.932;2022-11-20T17:18:31;3.93;;;3.10;;
7173;SDS011;3628;48.654;8.932;2022-11-20T17:20:57;2.97;;;1.57;;
7173;SDS011;3628;48.654;8.932;2022-11-20T17:23:28;1.30;;;1.03;;
7173;SDS011;3628;48.654;8.932;2022-11-20T17:26:02;1.87;;;1.10;;